sensor_id;sensor_type;location;lat;lon;timestamp;temperature;humidity
19363;DHT22;9817;50.80926400;5.16316200;2022-09-03T00:00:48;19.80;90.90
19363;DHT22;9817;50.80926400;5.16316200;2022-09-03T00:03:42;19.60;91.20
19363;DHT22;9817;50.80926400;5.16316200;2022-09-03T00:06:12;19.60;91.50
19363;DHT22;9817;50.80926400;5.16316200;2022-09-03T00:09:10;19.70;91.90
19363;DHT22;9817;50.80926400;5.16316200;2022-09-03T00:14:26;19.70;92.20
19363;DHT22;9817;50.80926400;5.16316200;2022-09-03T00:17:15;19.70;92.50
19363;DHT22;9817;50.80926400;5.16316200;2022-09-03T00:20:12;19.70;92.80
19363;DHT22;9817;50.80926400;5.16316200;2022-09-03T00:22:57;19.70;93.20
19363;DHT22;9817;50.80926400;5.16316200;2022-09-03T00:25:37;19.60;93.50
19363;DHT22;9817;50.80926400;5.16316200;2022-09-03T00:28:10;19.60;93.50
19363;DHT22;9817;50.80926400;5.16316200;2022-09-03T00:30:38;19.60;93.20
19363;DHT22;9817;50.80926400;5.16316200;2022-09-03T00:33:17;19.60;93.40
19363;DHT22;9817;50.80926400;5.16316200;2022-09-03T00:35:50;19.60;93.70
19363;DHT22;9817;50.80926400;5.16316200;2022-09-03T00:38:18;19.70;93.60
19363;DHT22;9817;50.80926400;5.16316200;2022-09-03T00:40:54;19.70;93.40
19363;DHT22;9817;50.80926400;5.16316200;2022-09-03T00:46:37;19.80;93.40
19363;DHT22;9817;50.80926400;5.16316200;2022-09-03T00:49:12;19.80;93.30
19363;DHT22;9817;50.80926400;5.16316200;2022-09-03T00:52:06;19.80;93.50
19363;DHT22;9817;50.80926400;5.16316200;2022-09-03T01:00:21;19.90;94.70
19363;DHT22;9817;50.80926400;5.16316200;2022-09-03T01:10:56;19.60;96.30
19363;DHT22;9817;50.80926400;5.16316200;2022-09-03T01:27:06;19.40;97.40
19363;DHT22;9817;50.80926400;5.16316200;2022-09-03T01:29:50;19.40;97.60
19363;DHT22;9817;50.80926400;5.16316200;2022-09-03T01:37:57;19.60;97.10
19363;DHT22;9817;50.80926400;5.16316200;2022-09-03T01:40:44;19.70;97.20
19363;DHT22;9817;50.80926400;5.16316200;2022-09-03T01:46:09;19.70;96.90
19363;DHT22;9817;50.80926400;5.16316200;2022-09-03T01:51:24;19.70;96.60
19363;DHT22;9817;50.80926400;5.16316200;2022-09-03T01:59:30;19.90;96.30
19363;DHT22;9817;50.80926400;5.16316200;2022-09-03T02:04:30;19.90;96.30
19363;DHT22;9817;50.80926400;5.16316200;2022-09-03T02:06:58;19.90;95.90
19363;DHT22;9817;50.80926400;5.16316200;2022-09-03T02:09:25;19.90;95.90
19363;DHT22;9817;50.80926400;5.16316200;2022-09-03T02:12:07;19.90;96.30
19363;DHT22;9817;50.80926400;5.16316200;2022-09-03T02:14:33;20.00;96.50
19363;DHT22;9817;50.80926400;5.16316200;2022-09-03T02:17:00;19.90;96.50
19363;DHT22;9817;50.80926400;5.16316200;2022-09-03T02:19:27;19.90;96.70
19363;DHT22;9817;50.80926400;5.16316200;2022-09-03T02:21:55;19.70;96.70
19363;DHT22;9817;50.80926400;5.16316200;2022-09-03T02:24:22;19.70;96.80
19363;DHT22;9817;50.80926400;5.16316200;2022-09-03T02:26:48;19.70;97.10
19363;DHT22;9817;50.80926400;5.16316200;2022-09-03T02:29:14;19.70;97.10
19363;DHT22;9817;50.80926400;5.16316200;2022-09-03T02:31:42;19.80;97.40
19363;DHT22;9817;50.80926400;5.16316200;2022-09-03T02:34:08;19.90;97.60
19363;DHT22;9817;50.80926400;5.16316200;2022-09-03T02:36:36;19.90;97.20
19363;DHT22;9817;50.80926400;5.16316200;2022-09-03T02:39:03;20.00;96.60
19363;DHT22;9817;50.80926400;5.16316200;2022-09-03T02:41:29;20.00;96.90
19363;DHT22;9817;50.80926400;5.16316200;2022-09-03T02:44:28;20.00;96.70
19363;DHT22;9817;50.80926400;5.16316200;2022-09-03T02:46:57;20.10;96.80
19363;DHT22;9817;50.80926400;5.16316200;2022-09-03T02:49:22;20.00;96.90
19363;DHT22;9817;50.80926400;5.16316200;2022-09-03T02:51:48;20.10;97.10
19363;DHT22;9817;50.80926400;5.16316200;2022-09-03T02:54:14;20.00;97.80
19363;DHT22;9817;50.80926400;5.16316200;2022-09-03T02:56:40;20.10;97.50
19363;DHT22;9817;50.80926400;5.16316200;2022-09-03T02:59:07;20.00;97.50
19363;DHT22;9817;50.80926400;5.16316200;2022-09-03T03:01:34;20.00;97.60
19363;DHT22;9817;50.80926400;5.16316200;2022-09-03T03:04:01;20.10;97.40
19363;DHT22;9817;50.80926400;5.16316200;2022-09-03T03:06:26;20.10;97.50
19363;DHT22;9817;50.80926400;5.16316200;2022-09-03T03:08:52;20.00;97.40
19363;DHT22;9817;50.80926400;5.16316200;2022-09-03T03:11:20;20.00;97.40
19363;DHT22;9817;50.80926400;5.16316200;2022-09-03T03:13:46;20.00;97.60
19363;DHT22;9817;50.80926400;5.16316200;2022-09-03T03:16:13;20.00;98.00
19363;DHT22;9817;50.80926400;5.16316200;2022-09-03T03:18:39;20.00;98.10
19363;DHT22;9817;50.80926400;5.16316200;2022-09-03T03:21:07;20.00;98.30
19363;DHT22;9817;50.80926400;5.16316200;2022-09-03T03:23:34;19.90;98.70
19363;DHT22;9817;50.80926400;5.16316200;2022-09-03T03:26:04;19.90;98.80
19363;DHT22;9817;50.80926400;5.16316200;2022-09-03T03:28:31;19.90;99.10
19363;DHT22;9817;50.80926400;5.16316200;2022-09-03T03:31:17;19.90;99.30
19363;DHT22;9817;50.80926400;5.16316200;2022-09-03T03:33:51;19.90;99.10
19363;DHT22;9817;50.80926400;5.16316200;2022-09-03T03:36:18;19.80;99.20
19363;DHT22;9817;50.80926400;5.16316200;2022-09-03T03:38:44;19.90;99.10
19363;DHT22;9817;50.80926400;5.16316200;2022-09-03T03:41:21;19.80;99.30
19363;DHT22;9817;50.80926400;5.16316200;2022-09-03T03:43:51;19.70;99.50
19363;DHT22;9817;50.80926400;5.16316200;2022-09-03T03:46:17;19.80;99.60
19363;DHT22;9817;50.80926400;5.16316200;2022-09-03T03:48:43;19.70;99.70
19363;DHT22;9817;50.80926400;5.16316200;2022-09-03T03:51:09;19.70;99.90
19363;DHT22;9817;50.80926400;5.16316200;2022-09-03T03:53:36;19.70;99.90
19363;DHT22;9817;50.80926400;5.16316200;2022-09-03T03:56:05;19.80;99.90
19363;DHT22;9817;50.80926400;5.16316200;2022-09-03T03:58:31;19.90;99.50
19363;DHT22;9817;50.80926400;5.16316200;2022-09-03T04:01:11;20.00;99.40
19363;DHT22;9817;50.80926400;5.16316200;2022-09-03T04:03:38;20.00;99.50
19363;DHT22;9817;50.80926400;5.16316200;2022-09-03T04:06:04;20.00;99.50
19363;DHT22;9817;50.80926400;5.16316200;2022-09-03T04:08:34;19.90;99.70
19363;DHT22;9817;50.80926400;5.16316200;2022-09-03T04:11:02;19.90;99.90
19363;DHT22;9817;50.80926400;5.16316200;2022-09-03T04:13:32;19.90;99.90
19363;DHT22;9817;50.80926400;5.16316200;2022-09-03T04:16:05;19.90;99.90
19363;DHT22;9817;50.80926400;5.16316200;2022-09-03T04:18:32;19.90;99.90
19363;DHT22;9817;50.80926400;5.16316200;2022-09-03T04:21:03;19.80;99.90
19363;DHT22;9817;50.80926400;5.16316200;2022-09-03T04:23:33;19.90;99.90
19363;DHT22;9817;50.80926400;5.16316200;2022-09-03T04:25:59;19.90;99.90
19363;DHT22;9817;50.80926400;5.16316200;2022-09-03T04:28:25;19.90;99.50
19363;DHT22;9817;50.80926400;5.16316200;2022-09-03T04:30:51;19.90;99.20
19363;DHT22;9817;50.80926400;5.16316200;2022-09-03T04:33:17;19.70;98.10
19363;DHT22;9817;50.80926400;5.16316200;2022-09-03T04:35:43;19.60;98.10
19363;DHT22;9817;50.80926400;5.16316200;2022-09-03T04:38:09;19.70;98.40
19363;DHT22;9817;50.80926400;5.16316200;2022-09-03T04:40:35;19.80;98.60
19363;DHT22;9817;50.80926400;5.16316200;2022-09-03T04:43:02;19.70;98.40
19363;DHT22;9817;50.80926400;5.16316200;2022-09-03T04:45:27;19.70;98.40
19363;DHT22;9817;50.80926400;5.16316200;2022-09-03T04:48:02;19.70;98.50
19363;DHT22;9817;50.80926400;5.16316200;2022-09-03T04:50:30;19.60;98.60
19363;DHT22;9817;50.80926400;5.16316200;2022-09-03T04:53:00;19.60;99.00
19363;DHT22;9817;50.80926400;5.16316200;2022-09-03T04:55:27;19.60;99.10
19363;DHT22;9817;50.80926400;5.16316200;2022-09-03T04:57:52;19.60;99.50
19363;DHT22;9817;50.80926400;5.16316200;2022-09-03T05:00:18;19.70;99.40
19363;DHT22;9817;50.80926400;5.16316200;2022-09-03T05:02:44;19.70;99.70
19363;DHT22;9817;50.80926400;5.16316200;2022-09-03T05:05:11;19.80;99.90
19363;DHT22;9817;50.80926400;5.16316200;2022-09-03T05:07:37;19.80;99.90
19363;DHT22;9817;50.80926400;5.16316200;2022-09-03T05:10:10;19.80;99.90
19363;DHT22;9817;50.80926400;5.16316200;2022-09-03T05:13:00;19.80;99.90
19363;DHT22;9817;50.80926400;5.16316200;2022-09-03T05:15:27;19.80;99.90
19363;DHT22;9817;50.80926400;5.16316200;2022-09-03T05:18:00;19.80;99.90
19363;DHT22;9817;50.80926400;5.16316200;2022-09-03T05:20:29;19.80;99.90
19363;DHT22;9817;50.80926400;5.16316200;2022-09-03T05:22:56;19.70;99.90
19363;DHT22;9817;50.80926400;5.16316200;2022-09-03T05:25:23;19.70;99.90
19363;DHT22;9817;50.80926400;5.16316200;2022-09-03T05:27:49;19.70;99.90
19363;DHT22;9817;50.80926400;5.16316200;2022-09-03T05:30:15;19.80;99.90
19363;DHT22;9817;50.80926400;5.16316200;2022-09-03T05:32:41;19.80;99.90
19363;DHT22;9817;50.80926400;5.16316200;2022-09-03T05:35:08;19.80;99.90
19363;DHT22;9817;50.80926400;5.16316200;2022-09-03T05:37:34;19.90;99.90
19363;DHT22;9817;50.80926400;5.16316200;2022-09-03T05:39:59;19.90;99.90
19363;DHT22;9817;50.80926400;5.16316200;2022-09-03T05:45:42;19.80;99.90
19363;DHT22;9817;50.80926400;5.16316200;2022-09-03T05:48:08;19.80;99.90
19363;DHT22;9817;50.80926400;5.16316200;2022-09-03T05:50:33;19.90;99.90
19363;DHT22;9817;50.80926400;5.16316200;2022-09-03T05:52:59;19.90;99.90
19363;DHT22;9817;50.80926400;5.16316200;2022-09-03T05:55:25;20.00;99.90
19363;DHT22;9817;50.80926400;5.16316200;2022-09-03T05:57:53;20.10;99.90
19363;DHT22;9817;50.80926400;5.16316200;2022-09-03T06:00:19;20.10;99.90
19363;DHT22;9817;50.80926400;5.16316200;2022-09-03T06:02:51;20.10;99.90
19363;DHT22;9817;50.80926400;5.16316200;2022-09-03T06:05:18;20.20;99.90
19363;DHT22;9817;50.80926400;5.16316200;2022-09-03T06:07:44;20.40;99.90
19363;DHT22;9817;50.80926400;5.16316200;2022-09-03T06:10:14;20.40;99.90
19363;DHT22;9817;50.80926400;5.16316200;2022-09-03T06:12:42;20.60;99.90
19363;DHT22;9817;50.80926400;5.16316200;2022-09-03T06:15:13;20.70;99.90
19363;DHT22;9817;50.80926400;5.16316200;2022-09-03T06:17:39;21.00;99.90
19363;DHT22;9817;50.80926400;5.16316200;2022-09-03T06:20:06;21.10;99.90
19363;DHT22;9817;50.80926400;5.16316200;2022-09-03T06:22:32;21.30;99.90
19363;DHT22;9817;50.80926400;5.16316200;2022-09-03T06:24:57;21.40;99.50
19363;DHT22;9817;50.80926400;5.16316200;2022-09-03T06:27:23;21.60;99.40
19363;DHT22;9817;50.80926400;5.16316200;2022-09-03T06:29:49;21.80;99.40
19363;DHT22;9817;50.80926400;5.16316200;2022-09-03T06:32:14;22.00;99.40
19363;DHT22;9817;50.80926400;5.16316200;2022-09-03T06:34:41;22.10;99.40
19363;DHT22;9817;50.80926400;5.16316200;2022-09-03T06:37:07;22.30;99.40
19363;DHT22;9817;50.80926400;5.16316200;2022-09-03T06:39:32;22.50;99.40
19363;DHT22;9817;50.80926400;5.16316200;2022-09-03T06:41:58;22.70;99.30
19363;DHT22;9817;50.80926400;5.16316200;2022-09-03T06:44:24;22.90;99.20
19363;DHT22;9817;50.80926400;5.16316200;2022-09-03T06:46:49;22.90;99.10
19363;DHT22;9817;50.80926400;5.16316200;2022-09-03T06:49:17;23.00;99.40
19363;DHT22;9817;50.80926400;5.16316200;2022-09-03T06:51:44;23.10;98.90
19363;DHT22;9817;50.80926400;5.16316200;2022-09-03T06:54:10;23.20;98.60
19363;DHT22;9817;50.80926400;5.16316200;2022-09-03T06:56:38;23.20;98.10
19363;DHT22;9817;50.80926400;5.16316200;2022-09-03T06:59:08;23.30;98.00
19363;DHT22;9817;50.80926400;5.16316200;2022-09-03T07:01:35;23.30;98.40
19363;DHT22;9817;50.80926400;5.16316200;2022-09-03T07:04:05;23.40;98.60
19363;DHT22;9817;50.80926400;5.16316200;2022-09-03T07:06:34;23.40;98.30
19363;DHT22;9817;50.80926400;5.16316200;2022-09-03T07:09:08;23.60;97.10
19363;DHT22;9817;50.80926400;5.16316200;2022-09-03T07:11:35;23.60;97.10
19363;DHT22;9817;50.80926400;5.16316200;2022-09-03T07:14:02;23.60;96.80
19363;DHT22;9817;50.80926400;5.16316200;2022-09-03T07:16:36;23.50;96.70
19363;DHT22;9817;50.80926400;5.16316200;2022-09-03T07:19:03;23.60;95.60
19363;DHT22;9817;50.80926400;5.16316200;2022-09-03T07:21:30;23.70;95.50
19363;DHT22;9817;50.80926400;5.16316200;2022-09-03T07:23:56;24.00;95.10
19363;DHT22;9817;50.80926400;5.16316200;2022-09-03T07:26:23;24.00;93.40
19363;DHT22;9817;50.80926400;5.16316200;2022-09-03T07:28:50;24.20;93.90
19363;DHT22;9817;50.80926400;5.16316200;2022-09-03T07:31:18;24.40;92.70
19363;DHT22;9817;50.80926400;5.16316200;2022-09-03T07:33:45;24.60;93.00
19363;DHT22;9817;50.80926400;5.16316200;2022-09-03T07:36:13;24.80;92.90
19363;DHT22;9817;50.80926400;5.16316200;2022-09-03T07:38:41;24.90;91.90
19363;DHT22;9817;50.80926400;5.16316200;2022-09-03T07:41:08;24.80;92.00
19363;DHT22;9817;50.80926400;5.16316200;2022-09-03T07:43:36;24.80;93.30
19363;DHT22;9817;50.80926400;5.16316200;2022-09-03T07:46:11;24.80;92.70
19363;DHT22;9817;50.80926400;5.16316200;2022-09-03T07:48:38;24.70;92.90
19363;DHT22;9817;50.80926400;5.16316200;2022-09-03T07:51:05;24.70;92.60
19363;DHT22;9817;50.80926400;5.16316200;2022-09-03T07:53:31;24.50;94.00
19363;DHT22;9817;50.80926400;5.16316200;2022-09-03T07:56:04;24.60;94.50
19363;DHT22;9817;50.80926400;5.16316200;2022-09-03T07:58:31;24.50;95.50
19363;DHT22;9817;50.80926400;5.16316200;2022-09-03T08:00:57;24.70;95.50
19363;DHT22;9817;50.80926400;5.16316200;2022-09-03T08:03:23;24.90;96.70
19363;DHT22;9817;50.80926400;5.16316200;2022-09-03T08:05:49;25.10;97.10
19363;DHT22;9817;50.80926400;5.16316200;2022-09-03T08:08:15;24.90;97.30
19363;DHT22;9817;50.80926400;5.16316200;2022-09-03T08:10:42;24.90;97.60
19363;DHT22;9817;50.80926400;5.16316200;2022-09-03T08:13:09;25.00;97.70
19363;DHT22;9817;50.80926400;5.16316200;2022-09-03T08:15:35;24.90;97.80
19363;DHT22;9817;50.80926400;5.16316200;2022-09-03T08:18:02;25.00;98.80
19363;DHT22;9817;50.80926400;5.16316200;2022-09-03T08:20:28;24.90;98.60
19363;DHT22;9817;50.80926400;5.16316200;2022-09-03T08:23:01;24.70;99.10
19363;DHT22;9817;50.80926400;5.16316200;2022-09-03T08:25:28;24.70;99.30
19363;DHT22;9817;50.80926400;5.16316200;2022-09-03T08:27:56;24.60;99.90
19363;DHT22;9817;50.80926400;5.16316200;2022-09-03T08:30:22;24.40;99.90
19363;DHT22;9817;50.80926400;5.16316200;2022-09-03T08:32:49;24.40;99.90
19363;DHT22;9817;50.80926400;5.16316200;2022-09-03T08:35:15;24.40;99.90
19363;DHT22;9817;50.80926400;5.16316200;2022-09-03T08:37:40;24.50;99.90
19363;DHT22;9817;50.80926400;5.16316200;2022-09-03T08:40:07;24.50;99.90
19363;DHT22;9817;50.80926400;5.16316200;2022-09-03T08:43:26;24.50;99.90
19363;DHT22;9817;50.80926400;5.16316200;2022-09-03T08:45:35;24.70;99.90
19363;DHT22;9817;50.80926400;5.16316200;2022-09-03T08:48:12;24.80;99.90
19363;DHT22;9817;50.80926400;5.16316200;2022-09-03T08:50:43;24.90;99.90
19363;DHT22;9817;50.80926400;5.16316200;2022-09-03T08:56:26;25.40;99.90
19363;DHT22;9817;50.80926400;5.16316200;2022-09-03T08:58:53;25.90;99.90
19363;DHT22;9817;50.80926400;5.16316200;2022-09-03T09:01:42;25.80;99.90
19363;DHT22;9817;50.80926400;5.16316200;2022-09-03T09:04:34;26.10;99.90
19363;DHT22;9817;50.80926400;5.16316200;2022-09-03T09:18:22;27.80;96.50
19363;DHT22;9817;50.80926400;5.16316200;2022-09-03T09:21:14;28.60;94.20
19363;DHT22;9817;50.80926400;5.16316200;2022-09-03T09:23:49;30.30;91.70
19363;DHT22;9817;50.80926400;5.16316200;2022-09-03T09:26:20;31.80;88.70
19363;DHT22;9817;50.80926400;5.16316200;2022-09-03T09:28:54;32.60;87.10
19363;DHT22;9817;50.80926400;5.16316200;2022-09-03T09:31:21;33.40;82.00
19363;DHT22;9817;50.80926400;5.16316200;2022-09-03T09:33:47;33.30;81.40
19363;DHT22;9817;50.80926400;5.16316200;2022-09-03T09:36:16;32.80;81.00
19363;DHT22;9817;50.80926400;5.16316200;2022-09-03T09:38:45;32.60;80.80
19363;DHT22;9817;50.80926400;5.16316200;2022-09-03T09:41:14;33.00;81.00
19363;DHT22;9817;50.80926400;5.16316200;2022-09-03T09:43:41;34.20;77.60
19363;DHT22;9817;50.80926400;5.16316200;2022-09-03T09:46:24;34.90;74.70
19363;DHT22;9817;50.80926400;5.16316200;2022-09-03T09:48:55;35.90;73.00
19363;DHT22;9817;50.80926400;5.16316200;2022-09-03T09:51:23;36.80;69.80
19363;DHT22;9817;50.80926400;5.16316200;2022-09-03T09:54:12;37.00;68.20
19363;DHT22;9817;50.80926400;5.16316200;2022-09-03T09:56:38;37.00;66.80
19363;DHT22;9817;50.80926400;5.16316200;2022-09-03T09:59:09;36.80;66.60
19363;DHT22;9817;50.80926400;5.16316200;2022-09-03T10:01:38;36.50;67.10
19363;DHT22;9817;50.80926400;5.16316200;2022-09-03T10:04:12;36.90;66.00
19363;DHT22;9817;50.80926400;5.16316200;2022-09-03T10:06:53;37.10;65.70
19363;DHT22;9817;50.80926400;5.16316200;2022-09-03T10:09:27;37.30;66.70
19363;DHT22;9817;50.80926400;5.16316200;2022-09-03T10:12:12;37.20;66.00
19363;DHT22;9817;50.80926400;5.16316200;2022-09-03T10:15:04;36.40;67.90
19363;DHT22;9817;50.80926400;5.16316200;2022-09-03T10:17:52;35.80;66.60
19363;DHT22;9817;50.80926400;5.16316200;2022-09-03T10:20:30;35.40;68.30
19363;DHT22;9817;50.80926400;5.16316200;2022-09-03T10:28:20;33.50;72.50
19363;DHT22;9817;50.80926400;5.16316200;2022-09-03T10:33:40;32.30;73.20
19363;DHT22;9817;50.80926400;5.16316200;2022-09-03T10:38:39;30.80;79.40
19363;DHT22;9817;50.80926400;5.16316200;2022-09-03T10:41:18;30.90;79.20
19363;DHT22;9817;50.80926400;5.16316200;2022-09-03T10:46:21;30.70;79.00
19363;DHT22;9817;50.80926400;5.16316200;2022-09-03T10:54:51;29.90;79.40
19363;DHT22;9817;50.80926400;5.16316200;2022-09-03T10:58:00;29.60;81.00
19363;DHT22;9817;50.80926400;5.16316200;2022-09-03T11:00:15;29.60;81.60
19363;DHT22;9817;50.80926400;5.16316200;2022-09-03T11:10:53;29.50;82.90
19363;DHT22;9817;50.80926400;5.16316200;2022-09-03T11:13:25;29.50;84.30
19363;DHT22;9817;50.80926400;5.16316200;2022-09-03T11:15:55;29.50;82.60
19363;DHT22;9817;50.80926400;5.16316200;2022-09-03T11:20:57;29.50;82.40
19363;DHT22;9817;50.80926400;5.16316200;2022-09-03T11:23:27;29.30;84.40
19363;DHT22;9817;50.80926400;5.16316200;2022-09-03T11:25:59;29.20;84.50
19363;DHT22;9817;50.80926400;5.16316200;2022-09-03T11:34:47;28.90;84.90
19363;DHT22;9817;50.80926400;5.16316200;2022-09-03T11:37:19;28.90;85.80
19363;DHT22;9817;50.80926400;5.16316200;2022-09-03T11:40:03;28.80;86.50
19363;DHT22;9817;50.80926400;5.16316200;2022-09-03T11:42:37;28.90;87.90
19363;DHT22;9817;50.80926400;5.16316200;2022-09-03T11:45:33;28.80;89.60
19363;DHT22;9817;50.80926400;5.16316200;2022-09-03T11:48:00;29.00;87.90
19363;DHT22;9817;50.80926400;5.16316200;2022-09-03T11:50:28;29.20;88.00
19363;DHT22;9817;50.80926400;5.16316200;2022-09-03T11:53:07;29.10;87.20
19363;DHT22;9817;50.80926400;5.16316200;2022-09-03T11:55:53;29.00;88.00
19363;DHT22;9817;50.80926400;5.16316200;2022-09-03T11:58:39;29.10;87.10
19363;DHT22;9817;50.80926400;5.16316200;2022-09-03T12:01:15;29.10;89.50
19363;DHT22;9817;50.80926400;5.16316200;2022-09-03T12:04:00;29.40;87.90
19363;DHT22;9817;50.80926400;5.16316200;2022-09-03T12:17:29;29.20;85.10
19363;DHT22;9817;50.80926400;5.16316200;2022-09-03T12:19:57;29.30;86.30
19363;DHT22;9817;50.80926400;5.16316200;2022-09-03T12:22:26;29.40;87.50
19363;DHT22;9817;50.80926400;5.16316200;2022-09-03T12:25:07;29.40;87.30
19363;DHT22;9817;50.80926400;5.16316200;2022-09-03T12:27:33;29.50;87.30
19363;DHT22;9817;50.80926400;5.16316200;2022-09-03T12:30:00;29.60;84.20
19363;DHT22;9817;50.80926400;5.16316200;2022-09-03T12:32:29;29.80;85.40
19363;DHT22;9817;50.80926400;5.16316200;2022-09-03T12:34:57;29.80;84.60
19363;DHT22;9817;50.80926400;5.16316200;2022-09-03T12:37:25;29.80;82.90
19363;DHT22;9817;50.80926400;5.16316200;2022-09-03T12:39:52;29.80;83.20
19363;DHT22;9817;50.80926400;5.16316200;2022-09-03T12:42:29;30.00;82.90
19363;DHT22;9817;50.80926400;5.16316200;2022-09-03T12:45:07;30.00;83.80
19363;DHT22;9817;50.80926400;5.16316200;2022-09-03T12:47:40;30.20;84.80
19363;DHT22;9817;50.80926400;5.16316200;2022-09-03T12:50:36;30.30;82.80
19363;DHT22;9817;50.80926400;5.16316200;2022-09-03T12:53:02;30.40;81.70
19363;DHT22;9817;50.80926400;5.16316200;2022-09-03T12:55:35;30.40;79.90
19363;DHT22;9817;50.80926400;5.16316200;2022-09-03T12:58:23;30.10;81.10
19363;DHT22;9817;50.80926400;5.16316200;2022-09-03T13:06:06;30.00;77.70
19363;DHT22;9817;50.80926400;5.16316200;2022-09-03T13:08:44;30.30;77.80
19363;DHT22;9817;50.80926400;5.16316200;2022-09-03T13:11:18;30.50;78.50
19363;DHT22;9817;50.80926400;5.16316200;2022-09-03T13:13:59;30.50;75.80
19363;DHT22;9817;50.80926400;5.16316200;2022-09-03T13:19:28;30.30;80.90
19363;DHT22;9817;50.80926400;5.16316200;2022-09-03T13:25:18;30.20;79.50
19363;DHT22;9817;50.80926400;5.16316200;2022-09-03T13:30:11;30.30;81.00
19363;DHT22;9817;50.80926400;5.16316200;2022-09-03T13:33:01;30.50;80.00
19363;DHT22;9817;50.80926400;5.16316200;2022-09-03T13:38:34;31.00;79.70
19363;DHT22;9817;50.80926400;5.16316200;2022-09-03T13:50:02;30.90;80.60
19363;DHT22;9817;50.80926400;5.16316200;2022-09-03T13:55:48;29.90;82.80
19363;DHT22;9817;50.80926400;5.16316200;2022-09-03T13:58:20;29.70;86.00
19363;DHT22;9817;50.80926400;5.16316200;2022-09-03T14:01:09;29.60;84.80
19363;DHT22;9817;50.80926400;5.16316200;2022-09-03T14:03:54;29.50;86.50
19363;DHT22;9817;50.80926400;5.16316200;2022-09-03T14:06:42;29.70;86.30
19363;DHT22;9817;50.80926400;5.16316200;2022-09-03T14:15:02;30.10;83.40
19363;DHT22;9817;50.80926400;5.16316200;2022-09-03T14:20:11;30.80;81.30
19363;DHT22;9817;50.80926400;5.16316200;2022-09-03T14:22:55;30.90;81.90
19363;DHT22;9817;50.80926400;5.16316200;2022-09-03T14:25:25;31.30;81.30
19363;DHT22;9817;50.80926400;5.16316200;2022-09-03T14:27:54;31.30;82.00
19363;DHT22;9817;50.80926400;5.16316200;2022-09-03T14:36:30;31.90;78.90
19363;DHT22;9817;50.80926400;5.16316200;2022-09-03T14:42:27;31.60;77.90
19363;DHT22;9817;50.80926400;5.16316200;2022-09-03T14:50:45;31.10;80.50
19363;DHT22;9817;50.80926400;5.16316200;2022-09-03T14:59:12;30.80;79.50
19363;DHT22;9817;50.80926400;5.16316200;2022-09-03T15:07:59;30.80;80.20
19363;DHT22;9817;50.80926400;5.16316200;2022-09-03T15:10:36;30.80;81.00
19363;DHT22;9817;50.80926400;5.16316200;2022-09-03T15:16:07;30.90;79.60
19363;DHT22;9817;50.80926400;5.16316200;2022-09-03T15:19:11;30.80;80.50
19363;DHT22;9817;50.80926400;5.16316200;2022-09-03T15:29:48;30.20;81.60
19363;DHT22;9817;50.80926400;5.16316200;2022-09-03T15:43:28;29.20;84.10
19363;DHT22;9817;50.80926400;5.16316200;2022-09-03T15:45:58;29.20;84.50
19363;DHT22;9817;50.80926400;5.16316200;2022-09-03T15:54:00;29.50;83.00
19363;DHT22;9817;50.80926400;5.16316200;2022-09-03T15:59:39;29.00;85.50
19363;DHT22;9817;50.80926400;5.16316200;2022-09-03T16:02:18;28.70;86.30
19363;DHT22;9817;50.80926400;5.16316200;2022-09-03T16:15:25;28.60;87.90
19363;DHT22;9817;50.80926400;5.16316200;2022-09-03T16:20:45;28.00;90.90
19363;DHT22;9817;50.80926400;5.16316200;2022-09-03T16:23:24;27.70;90.20
19363;DHT22;9817;50.80926400;5.16316200;2022-09-03T16:26:03;27.60;90.30
19363;DHT22;9817;50.80926400;5.16316200;2022-09-03T16:31:36;27.50;91.70
19363;DHT22;9817;50.80926400;5.16316200;2022-09-03T16:34:07;27.50;92.10
19363;DHT22;9817;50.80926400;5.16316200;2022-09-03T16:53:14;26.90;95.80
19363;DHT22;9817;50.80926400;5.16316200;2022-09-03T16:56:01;26.80;95.70
19363;DHT22;9817;50.80926400;5.16316200;2022-09-03T17:04:16;26.40;97.20
19363;DHT22;9817;50.80926400;5.16316200;2022-09-03T17:09:46;26.30;99.20
19363;DHT22;9817;50.80926400;5.16316200;2022-09-03T17:12:27;26.20;99.90
19363;DHT22;9817;50.80926400;5.16316200;2022-09-03T17:23:15;26.50;99.70
19363;DHT22;9817;50.80926400;5.16316200;2022-09-03T17:26:24;26.50;99.90
19363;DHT22;9817;50.80926400;5.16316200;2022-09-03T17:40:02;26.60;99.90
19363;DHT22;9817;50.80926400;5.16316200;2022-09-03T17:43:04;26.50;99.90
19363;DHT22;9817;50.80926400;5.16316200;2022-09-03T17:50:52;26.40;99.90
19363;DHT22;9817;50.80926400;5.16316200;2022-09-03T17:53:33;26.40;99.90
19363;DHT22;9817;50.80926400;5.16316200;2022-09-03T17:56:09;26.40;99.90
19363;DHT22;9817;50.80926400;5.16316200;2022-09-03T17:58:44;26.30;99.90
19363;DHT22;9817;50.80926400;5.16316200;2022-09-03T18:01:20;26.20;99.90
19363;DHT22;9817;50.80926400;5.16316200;2022-09-03T18:09:10;26.10;99.90
19363;DHT22;9817;50.80926400;5.16316200;2022-09-03T18:12:02;25.90;99.90
19363;DHT22;9817;50.80926400;5.16316200;2022-09-03T18:14:48;25.90;99.90
19363;DHT22;9817;50.80926400;5.16316200;2022-09-03T18:17:21;25.80;99.90
19363;DHT22;9817;50.80926400;5.16316200;2022-09-03T18:20:02;25.70;99.90
19363;DHT22;9817;50.80926400;5.16316200;2022-09-03T18:23:13;25.60;99.90
19363;DHT22;9817;50.80926400;5.16316200;2022-09-03T18:26:04;25.50;99.90
19363;DHT22;9817;50.80926400;5.16316200;2022-09-03T18:29:02;25.40;99.90
19363;DHT22;9817;50.80926400;5.16316200;2022-09-03T18:31:47;25.40;99.90
19363;DHT22;9817;50.80926400;5.16316200;2022-09-03T18:34:33;25.10;99.90
19363;DHT22;9817;50.80926400;5.16316200;2022-09-03T18:37:23;25.00;99.90
19363;DHT22;9817;50.80926400;5.16316200;2022-09-03T18:40:11;24.80;99.90
19363;DHT22;9817;50.80926400;5.16316200;2022-09-03T18:43:37;24.60;99.90
19363;DHT22;9817;50.80926400;5.16316200;2022-09-03T18:49:34;24.60;99.90
19363;DHT22;9817;50.80926400;5.16316200;2022-09-03T18:56:01;24.40;99.90